createdAt,value
2022-08-22T00:02:29.289Z,18.80
2022-08-22T00:02:57.557Z,19.40
2022-08-22T00:05:07.333Z,18.80
2022-08-22T00:07:46.826Z,18.80
2022-08-22T00:10:25.005Z,18.80
2022-08-22T00:13:02.469Z,18.80
2022-08-22T00:15:44.298Z,18.70
2022-08-22T00:18:16.864Z,18.70
2022-08-22T00:20:54.163Z,18.70
2022-08-22T00:23:28.433Z,18.70
2022-08-22T00:26:02.942Z,18.70
2022-08-22T00:28:37.027Z,18.70
2022-08-22T00:31:12.045Z,18.70
2022-08-22T00:33:46.570Z,18.70
2022-08-22T00:36:24.784Z,18.60
2022-08-22T00:39:00.182Z,18.70
2022-08-22T00:41:56.748Z,18.70
2022-08-22T00:44:47.618Z,18.60
2022-08-22T00:47:29.068Z,18.70
2022-08-22T00:50:28.673Z,18.70
2022-08-22T00:53:29.729Z,18.80
2022-08-22T00:56:12.284Z,18.80
2022-08-22T00:59:17.930Z,18.90
2022-08-22T01:01:58.503Z,18.90
2022-08-22T01:04:51.622Z,18.90
2022-08-22T01:07:38.224Z,18.90
2022-08-22T01:10:24.009Z,18.80
2022-08-22T01:13:13.109Z,18.80
2022-08-22T01:15:43.540Z,18.70
2022-08-22T01:18:40.109Z,18.70
2022-08-22T01:21:47.989Z,18.70
2022-08-22T01:28:31.487Z,18.70
2022-08-22T01:31:48.420Z,18.70
2022-08-22T01:34:51.545Z,18.60
2022-08-22T01:37:48.653Z,18.60
2022-08-22T01:40:54.006Z,18.70
2022-08-22T01:43:59.310Z,18.70
2022-08-22T01:46:37.902Z,18.70
2022-08-22T01:49:16.098Z,18.80
2022-08-22T01:51:51.446Z,18.80
2022-08-22T01:54:44.366Z,18.70
2022-08-22T01:57:14.547Z,18.70
2022-08-22T01:59:45.900Z,18.70
2022-08-22T02:02:41.388Z,18.70
2022-08-22T02:05:20.766Z,18.70
2022-08-22T02:07:56.918Z,18.60
2022-08-22T02:10:41.679Z,18.50
2022-08-22T02:13:28.328Z,18.40
2022-08-22T02:16:08.579Z,18.40
2022-08-22T02:18:50.177Z,18.40
2022-08-22T02:21:25.408Z,18.40
2022-08-22T02:24:01.972Z,18.30
2022-08-22T02:26:43.413Z,18.30
2022-08-22T02:29:23.872Z,18.20
2022-08-22T02:31:58.671Z,18.30
2022-08-22T02:34:41.027Z,18.30
2022-08-22T02:37:15.731Z,18.20
2022-08-22T02:39:53.042Z,18.20
2022-08-22T02:42:28.587Z,18.10
2022-08-22T02:45:02.780Z,18.10
2022-08-22T02:47:37.442Z,18.00
2022-08-22T02:50:13.741Z,18.00
2022-08-22T02:52:57.210Z,18.00
2022-08-22T02:55:39.994Z,17.90
2022-08-22T02:58:15.610Z,18.00
2022-08-22T03:00:48.630Z,18.00
2022-08-22T03:03:22.419Z,18.00
2022-08-22T03:06:01.105Z,18.00
2022-08-22T03:08:33.171Z,18.00
2022-08-22T03:11:17.018Z,17.90
2022-08-22T03:13:56.061Z,17.90
2022-08-22T03:16:31.817Z,17.90
2022-08-22T03:19:07.005Z,17.90
2022-08-22T03:21:49.082Z,17.90
2022-08-22T03:24:25.535Z,17.90
2022-08-22T03:27:01.838Z,17.90
2022-08-22T03:29:35.155Z,17.90
2022-08-22T03:32:11.751Z,18.00
2022-08-22T03:34:54.548Z,18.00
2022-08-22T03:37:27.749Z,18.00
2022-08-22T03:40:02.279Z,18.00
2022-08-22T03:43:00.883Z,18.10
2022-08-22T03:46:00.281Z,18.10
2022-08-22T03:49:07.212Z,18.10
2022-08-22T03:51:54.136Z,18.10
2022-08-22T03:54:52.587Z,18.20
2022-08-22T03:57:52.588Z,18.20
2022-08-22T04:00:47.990Z,18.20
2022-08-22T04:04:03.753Z,18.20
2022-08-22T04:07:31.535Z,18.20
2022-08-22T04:10:45.995Z,18.20
2022-08-22T04:13:43.585Z,18.30
2022-08-22T04:17:06.129Z,18.30
2022-08-22T04:19:59.100Z,18.40
2022-08-22T04:22:50.782Z,18.40
2022-08-22T04:25:23.952Z,18.40
2022-08-22T04:27:59.131Z,18.50
2022-08-22T04:30:33.752Z,18.50
2022-08-22T04:33:06.685Z,18.60
2022-08-22T04:35:40.594Z,18.60
2022-08-22T04:38:15.815Z,18.70
2022-08-22T04:40:49.226Z,18.70
2022-08-22T04:43:31.486Z,18.70
2022-08-22T04:46:05.485Z,18.80
2022-08-22T04:48:38.801Z,18.90
2022-08-22T04:51:17.979Z,18.90
2022-08-22T04:54:21.723Z,19.00
2022-08-22T04:57:03.496Z,19.10
2022-08-22T04:59:33.632Z,19.20
2022-08-22T05:02:06.775Z,19.20
2022-08-22T05:04:39.417Z,19.30
2022-08-22T05:07:14.758Z,19.40
2022-08-22T05:09:49.824Z,19.50
2022-08-22T05:12:37.707Z,19.60
2022-08-22T05:15:18.901Z,19.80
2022-08-22T05:17:54.917Z,19.90
2022-08-22T05:20:26.545Z,20.00
2022-08-22T05:23:00.683Z,20.10
2022-08-22T05:25:32.560Z,20.20
2022-08-22T05:28:12.195Z,20.30
2022-08-22T05:30:41.224Z,20.30
2022-08-22T05:33:17.647Z,20.40
2022-08-22T05:35:57.208Z,20.40
2022-08-22T05:38:32.744Z,20.50
2022-08-22T05:41:09.752Z,20.50
2022-08-22T05:43:40.758Z,20.50
2022-08-22T05:46:14.690Z,20.50
2022-08-22T05:48:58.813Z,20.50
2022-08-22T05:51:34.636Z,20.50
2022-08-22T05:54:13.430Z,20.40
2022-08-22T05:56:45.727Z,20.40
2022-08-22T05:59:23.947Z,20.30
2022-08-22T06:12:38.028Z,20.40
2022-08-22T06:15:16.981Z,20.50
2022-08-22T06:17:54.044Z,20.40
2022-08-22T06:20:28.759Z,20.40
2022-08-22T06:23:03.293Z,20.50
2022-08-22T06:25:35.675Z,20.50
2022-08-22T06:28:12.993Z,20.60
2022-08-22T06:30:45.693Z,20.70
2022-08-22T06:33:23.576Z,20.80
2022-08-22T06:36:20.513Z,20.90
2022-08-22T06:39:07.395Z,20.90
2022-08-22T06:41:43.449Z,21.10
2022-08-22T06:44:20.039Z,21.20
2022-08-22T06:46:55.027Z,21.30
2022-08-22T06:49:27.164Z,21.40
2022-08-22T06:52:03.399Z,21.50
2022-08-22T06:54:38.584Z,21.60
2022-08-22T06:57:25.429Z,21.60
2022-08-22T06:59:58.265Z,21.70
2022-08-22T07:02:36.440Z,21.90
2022-08-22T07:05:07.046Z,22.10
2022-08-22T07:07:38.803Z,22.40
2022-08-22T07:10:08.945Z,22.60
2022-08-22T07:12:39.568Z,22.80
2022-08-22T07:15:24.234Z,23.00
2022-08-22T07:18:01.021Z,23.20
2022-08-22T07:20:36.410Z,23.20
2022-08-22T07:23:11.001Z,23.20
2022-08-22T07:25:54.249Z,23.20
2022-08-22T07:28:51.589Z,23.20
2022-08-22T07:31:38.844Z,23.30
2022-08-22T07:34:31.377Z,23.30
2022-08-22T07:37:06.982Z,23.30
2022-08-22T07:39:46.451Z,23.20
2022-08-22T07:42:19.890Z,23.20
2022-08-22T07:45:08.549Z,23.20
2022-08-22T07:48:03.183Z,23.10
2022-08-22T07:50:39.149Z,23.20
2022-08-22T07:53:20.468Z,23.20
2022-08-22T07:55:51.034Z,23.20
2022-08-22T07:58:23.290Z,23.20
2022-08-22T08:00:54.628Z,23.20
2022-08-22T08:03:29.331Z,23.20
2022-08-22T08:05:58.634Z,23.10
2022-08-22T08:08:34.333Z,23.20
2022-08-22T08:11:05.213Z,23.30
2022-08-22T08:13:39.650Z,23.60
2022-08-22T08:16:18.025Z,23.80
2022-08-22T08:18:52.073Z,23.80
2022-08-22T08:21:31.468Z,23.80
2022-08-22T08:24:03.028Z,23.60
2022-08-22T08:26:37.226Z,23.60
2022-08-22T08:29:08.417Z,23.60
2022-08-22T08:31:43.053Z,23.50
2022-08-22T08:34:23.551Z,23.60
2022-08-22T08:36:56.516Z,23.60
2022-08-22T08:39:35.255Z,23.80
2022-08-22T08:43:11.679Z,23.80
2022-08-22T08:46:33.748Z,23.80
2022-08-22T08:49:43.236Z,23.80
2022-08-22T08:52:52.863Z,23.60
2022-08-22T08:55:41.441Z,23.60
2022-08-22T08:58:35.065Z,23.70
2022-08-22T09:01:42.808Z,23.80
2022-08-22T09:04:57.044Z,23.80
2022-08-22T09:07:47.909Z,23.80
2022-08-22T09:10:48.121Z,23.90
2022-08-22T09:14:04.153Z,24.10
2022-08-22T09:17:06.899Z,24.30
2022-08-22T09:20:17.974Z,24.50
2022-08-22T09:23:47.559Z,24.80
2022-08-22T09:26:37.184Z,25.00
2022-08-22T09:29:54.734Z,25.10
2022-08-22T09:32:45.763Z,25.10
2022-08-22T09:35:39.860Z,25.20
2022-08-22T09:38:36.753Z,25.10
2022-08-22T09:41:45.769Z,25.10
2022-08-22T09:44:39.579Z,25.00
2022-08-22T09:47:25.005Z,25.00
2022-08-22T09:50:09.851Z,25.00
2022-08-22T09:53:11.341Z,25.10
2022-08-22T09:55:50.165Z,25.20
2022-08-22T09:58:41.807Z,25.30
2022-08-22T10:01:32.875Z,25.40
2022-08-22T10:04:48.538Z,25.50
2022-08-22T10:07:54.275Z,25.50
2022-08-22T10:10:51.877Z,25.70
2022-08-22T10:13:46.472Z,26.00
2022-08-22T10:16:49.559Z,26.20
2022-08-22T10:19:28.942Z,26.40
2022-08-22T10:22:47.260Z,26.40
2022-08-22T10:25:36.253Z,25.90
2022-08-22T10:32:37.413Z,26.00
2022-08-22T10:35:21.501Z,26.30
2022-08-22T10:42:27.997Z,26.60
2022-08-22T10:45:32.107Z,26.80
2022-08-22T10:48:46.680Z,27.00
2022-08-22T10:51:42.395Z,27.30
2022-08-22T10:54:29.333Z,27.30
2022-08-22T10:57:52.851Z,27.40
2022-08-22T11:05:38.566Z,27.00
2022-08-22T11:08:59.624Z,27.20
2022-08-22T11:12:28.256Z,27.40
2022-08-22T11:15:34.420Z,27.50
2022-08-22T11:22:48.685Z,27.90
2022-08-22T11:26:08.911Z,28.20
2022-08-22T11:29:07.868Z,28.40
2022-08-22T11:32:05.874Z,28.20
2022-08-22T11:34:59.002Z,28.00
2022-08-22T11:42:05.890Z,27.80
2022-08-22T11:44:50.469Z,28.00
2022-08-22T11:52:32.398Z,28.30
2022-08-22T11:59:56.320Z,27.50
2022-08-22T12:02:48.856Z,27.10
2022-08-22T12:09:50.849Z,27.30
2022-08-22T12:17:55.027Z,27.80
2022-08-22T12:20:45.532Z,27.90
2022-08-22T12:23:49.540Z,28.10
2022-08-22T12:26:34.328Z,28.10
2022-08-22T12:33:57.451Z,27.70
2022-08-22T12:41:40.175Z,27.20
2022-08-22T12:49:25.563Z,27.60
2022-08-22T13:00:48.905Z,26.60
2022-08-22T13:03:29.686Z,26.60
2022-08-22T13:06:05.383Z,26.80
2022-08-22T13:08:44.147Z,27.00
2022-08-22T13:11:23.055Z,27.30
2022-08-22T13:13:58.466Z,27.60
2022-08-22T13:16:48.997Z,27.70
2022-08-22T13:19:24.156Z,27.60
2022-08-22T13:22:00.879Z,27.50
2022-08-22T13:24:51.758Z,27.30
2022-08-22T13:32:01.856Z,26.90
2022-08-22T13:34:43.466Z,26.50
2022-08-22T13:37:20.114Z,26.40
2022-08-22T13:39:54.118Z,26.30
2022-08-22T13:42:30.827Z,26.20
2022-08-22T13:49:36.079Z,25.90
2022-08-22T13:52:29.091Z,25.70
2022-08-22T13:59:47.053Z,25.30
2022-08-22T14:02:20.163Z,24.80
2022-08-22T14:04:56.251Z,24.10
2022-08-22T14:07:36.960Z,23.70
2022-08-22T14:10:15.309Z,23.40
2022-08-22T14:13:20.777Z,23.10
2022-08-22T14:15:49.857Z,22.80
2022-08-22T14:18:30.319Z,22.60
2022-08-22T14:21:49.095Z,22.50
2022-08-22T14:24:25.862Z,22.40
2022-08-22T14:27:05.480Z,22.20
2022-08-22T14:29:50.167Z,21.90
2022-08-22T14:32:43.739Z,21.80
2022-08-22T14:35:29.296Z,21.70
2022-08-22T14:42:48.339Z,21.50
2022-08-22T14:45:23.874Z,21.40
2022-08-22T14:48:29.441Z,21.30
2022-08-22T14:51:20.064Z,21.30
2022-08-22T14:53:51.754Z,21.30
2022-08-22T15:05:54.193Z,21.40
2022-08-22T15:08:30.377Z,21.50
2022-08-22T15:11:15.253Z,21.60
2022-08-22T15:13:54.759Z,21.80
2022-08-22T15:16:33.940Z,21.80
2022-08-22T15:23:32.198Z,22.00
2022-08-22T15:26:26.894Z,22.20
2022-08-22T15:29:20.853Z,22.30
2022-08-22T15:41:46.329Z,22.20
2022-08-22T15:44:32.907Z,22.10
2022-08-22T15:47:12.097Z,22.10
2022-08-22T15:49:59.019Z,22.10
2022-08-22T15:52:32.384Z,22.10
2022-08-22T15:55:25.624Z,22.00
2022-08-22T15:58:07.818Z,22.00
2022-08-22T16:00:45.040Z,21.90
2022-08-22T16:03:27.111Z,21.80
2022-08-22T16:06:01.316Z,21.60
2022-08-22T16:08:45.626Z,21.60
2022-08-22T16:11:33.010Z,21.50
2022-08-22T16:19:25.446Z,21.50
2022-08-22T16:22:15.143Z,21.60
2022-08-22T16:25:10.624Z,21.60
2022-08-22T16:27:58.739Z,21.70
2022-08-22T16:30:40.234Z,21.70
2022-08-22T16:33:18.005Z,21.70
2022-08-22T16:37:02.227Z,21.70
2022-08-22T16:39:42.649Z,21.80
2022-08-22T16:42:29.232Z,21.70
2022-08-22T16:45:16.544Z,21.70
2022-08-22T16:47:52.778Z,21.70
2022-08-22T16:50:41.016Z,21.60
2022-08-22T16:53:33.776Z,21.60
2022-08-22T17:00:51.241Z,21.50
2022-08-22T17:03:35.346Z,21.50
2022-08-22T17:06:26.770Z,21.40
2022-08-22T17:09:13.432Z,21.40
2022-08-22T17:11:56.457Z,21.40
2022-08-22T17:14:49.576Z,21.40
2022-08-22T17:17:35.391Z,21.40
2022-08-22T17:20:23.771Z,21.40
2022-08-22T17:23:26.641Z,21.30
2022-08-22T17:40:09.732Z,20.90
2022-08-22T17:47:15.425Z,20.60
2022-08-22T17:54:44.577Z,20.60
2022-08-22T18:06:24.230Z,20.40
2022-08-22T18:09:15.423Z,20.30
2022-08-22T18:11:53.538Z,20.20
2022-08-22T18:14:32.868Z,20.30
2022-08-22T18:17:21.795Z,20.30
2022-08-22T18:29:16.840Z,20.00
2022-08-22T18:31:52.809Z,19.90
2022-08-22T18:39:23.693Z,19.90
2022-08-22T18:46:43.102Z,19.80
2022-08-22T18:53:50.809Z,19.50
2022-08-22T18:56:51.985Z,19.50
2022-08-22T18:59:55.653Z,19.60
2022-08-22T19:07:26.880Z,19.60
2022-08-22T19:10:34.782Z,19.70
2022-08-22T19:14:43.586Z,19.70
2022-08-22T19:22:55.424Z,19.80
2022-08-22T19:31:16.425Z,19.50
2022-08-22T19:43:37.115Z,19.40
2022-08-22T20:05:47.356Z,19.10
2022-08-22T20:08:48.398Z,19.00
2022-08-22T20:34:28.594Z,19.00
2022-08-22T20:46:43.685Z,18.90
2022-08-22T20:53:38.998Z,18.90
2022-08-22T21:01:03.565Z,18.90
2022-08-22T21:13:20.948Z,19.00
2022-08-22T21:20:41.971Z,19.00
2022-08-22T21:28:35.040Z,19.10
2022-08-22T21:35:43.648Z,19.00
2022-08-22T21:38:19.331Z,19.10
2022-08-22T21:40:48.159Z,19.10
2022-08-22T21:43:34.593Z,19.20
2022-08-22T21:50:38.084Z,19.00
2022-08-22T21:53:14.101Z,18.90
2022-08-22T21:56:30.703Z,18.80
2022-08-22T21:59:50.516Z,18.80
2022-08-22T22:11:18.930Z,18.80
2022-08-22T22:13:47.625Z,18.70
2022-08-22T22:16:28.919Z,18.60
2022-08-22T22:28:11.991Z,18.50
2022-08-22T22:35:26.026Z,18.60
2022-08-22T22:37:56.051Z,18.50
2022-08-22T22:40:25.526Z,18.40
2022-08-22T22:47:34.204Z,18.40
2022-08-22T23:08:36.913Z,18.30
2022-08-22T23:20:31.408Z,18.10
2022-08-22T23:32:29.935Z,18.00
2022-08-22T23:44:23.639Z,18.00
2022-08-22T23:51:23.901Z,18.20
2022-08-22T23:58:36.384Z,18.00
